Time;durP1;ratioP1;P1;durP2;ratioP2;P2;SDS_P1;SDS_P2;PMS_P1;PMS_P2;Temp;Humidity;BMP_temperature;BMP_pressure;BME280_temperature;BME280_humidity;BME280_pressure;Samples;Min_cycle;Max_cycle;Signal;HPM_P1;HPM_P2
2022/06/12 00:00:11;;;;;;;13.23;7.18;;;18.30;99.90;;;;;;4976774;28;20023;-71
2022/06/12 00:02:37;;;;;;;10.50;5.65;;;18.40;99.90;;;;;;4973490;28;20041;-73
2022/06/12 00:05:03;;;;;;;11.48;6.03;;;18.20;99.90;;;;;;4969792;28;20031;-74
2022/06/12 00:07:29;;;;;;;9.40;6.18;;;18.30;99.90;;;;;;4969837;28;20539;-72
2022/06/12 00:09:54;;;;;;;10.43;6.35;;;18.30;99.90;;;;;;4970491;28;20046;-72
2022/06/12 00:12:21;;;;;;;9.30;6.03;;;18.20;99.90;;;;;;4973678;28;20054;-65
2022/06/12 00:14:47;;;;;;;12.00;6.07;;;18.30;99.90;;;;;;4973603;28;20106;-73
2022/06/12 00:17:13;;;;;;;12.90;6.15;;;18.20;99.90;;;;;;4975055;28;20549;-72
2022/06/12 00:19:40;;;;;;;20.02;6.03;;;18.20;99.90;;;;;;4973758;28;20052;-71
2022/06/12 00:22:07;;;;;;;16.42;6.30;;;18.10;99.90;;;;;;4973045;28;20121;-68
2022/06/12 00:24:33;;;;;;;8.18;5.93;;;18.00;99.90;;;;;;4973705;28;20179;-73
2022/06/12 00:26:59;;;;;;;9.50;6.40;;;17.90;99.90;;;;;;4973476;28;20742;-73
2022/06/12 00:29:29;;;;;;;11.38;6.80;;;17.90;99.90;;;;;;4972148;28;20085;-72
2022/06/12 00:32:02;;;;;;;13.40;6.03;;;17.90;99.90;;;;;;4974649;28;20045;-71
2022/06/12 00:34:31;;;;;;;10.07;6.07;;;17.80;99.90;;;;;;4974204;28;20069;-71
2022/06/12 00:36:58;;;;;;;10.30;6.43;;;17.90;99.90;;;;;;4974249;28;20019;-72
2022/06/12 00:39:24;;;;;;;9.80;5.82;;;17.80;99.90;;;;;;4975017;28;20026;-71
2022/06/12 00:41:53;;;;;;;11.90;6.85;;;17.90;99.90;;;;;;4974729;28;20034;-72
2022/06/12 00:44:24;;;;;;;9.95;5.70;;;17.80;99.90;;;;;;4974509;28;20043;-73
2022/06/12 00:46:52;;;;;;;10.70;5.77;;;17.80;99.90;;;;;;4971249;28;20035;-71
2022/06/12 00:49:24;;;;;;;11.98;6.35;;;17.80;99.90;;;;;;4974801;28;20025;-73
2022/06/12 00:51:55;;;;;;;8.82;5.68;;;17.80;99.90;;;;;;4974615;28;20374;-71
2022/06/12 00:54:22;;;;;;;10.45;6.25;;;17.80;99.90;;;;;;4961795;28;20057;-73
2022/06/12 00:56:51;;;;;;;10.57;6.55;;;17.80;99.90;;;;;;4974659;28;20604;-70
2022/06/12 00:59:39;;;;;;;10.35;6.50;;;17.70;99.90;;;;;;4974372;28;20029;-72
2022/06/12 01:02:08;;;;;;;9.02;6.03;;;17.70;99.90;;;;;;4974013;28;20125;-74
2022/06/12 01:07:25;;;;;;;16.17;6.15;;;17.60;99.90;;;;;;4954740;28;20375;-73
2022/06/12 01:09:55;;;;;;;9.18;5.53;;;17.60;99.90;;;;;;4972510;28;20065;-73
2022/06/12 01:12:25;;;;;;;11.32;6.25;;;17.50;99.90;;;;;;4972784;28;20142;-72
2022/06/12 01:15:06;;;;;;;12.10;6.25;;;17.50;99.90;;;;;;4972559;28;20528;-73
2022/06/12 01:17:33;;;;;;;16.02;7.15;;;17.50;99.90;;;;;;4972686;28;20130;-70
2022/06/12 01:20:03;;;;;;;17.25;6.55;;;17.40;99.90;;;;;;4972689;28;20470;-73
2022/06/12 01:22:44;;;;;;;10.32;6.40;;;17.40;99.90;;;;;;4972792;28;20445;-72
2022/06/12 01:25:25;;;;;;;11.65;6.10;;;17.40;99.90;;;;;;4972355;28;20026;-72
2022/06/12 01:27:54;;;;;;;10.73;5.95;;;17.50;99.90;;;;;;4972621;28;20038;-73
2022/06/12 01:30:45;;;;;;;10.35;6.32;;;17.40;99.90;;;;;;4972554;28;20026;-73
2022/06/12 01:33:20;;;;;;;8.30;5.60;;;17.40;99.90;;;;;;4972628;28;20023;-72
2022/06/12 01:36:07;;;;;;;10.75;5.80;;;17.30;99.90;;;;;;4972491;28;20026;-73
2022/06/12 01:38:59;;;;;;;9.32;5.80;;;17.30;99.90;;;;;;4972116;28;20478;-71
2022/06/12 01:41:27;;;;;;;12.65;6.35;;;17.40;99.90;;;;;;4971637;28;20402;-67
2022/06/12 01:44:11;;;;;;;12.35;6.10;;;17.30;99.90;;;;;;4969756;28;20097;-65
2022/06/12 01:46:48;;;;;;;14.60;6.50;;;17.20;99.90;;;;;;4971759;28;20374;-64
2022/06/12 01:49:20;;;;;;;8.93;6.38;;;17.20;99.90;;;;;;4971421;28;20030;-73
2022/06/12 01:52:04;;;;;;;9.43;5.82;;;17.20;99.90;;;;;;4973124;28;20027;-71
2022/06/12 01:54:52;;;;;;;11.18;6.47;;;17.20;99.90;;;;;;4971648;28;20035;-68
2022/06/12 01:57:32;;;;;;;11.23;6.22;;;17.20;99.90;;;;;;4970550;28;20026;-73
2022/06/12 02:00:16;;;;;;;14.00;7.03;;;17.10;99.90;;;;;;4971607;28;20031;-70
2022/06/12 02:02:51;;;;;;;12.52;6.82;;;17.10;99.90;;;;;;4970493;28;20043;-68
2022/06/12 02:05:17;;;;;;;11.32;6.32;;;17.00;99.90;;;;;;4971303;28;20031;-69
2022/06/12 02:07:47;;;;;;;9.45;6.47;;;17.00;99.90;;;;;;4970937;28;20037;-68
2022/06/12 02:10:28;;;;;;;13.00;6.47;;;17.00;99.90;;;;;;4970507;28;20027;-71
2022/06/12 02:13:12;;;;;;;9.32;5.22;;;17.00;99.90;;;;;;4970592;28;20035;-71
2022/06/12 02:15:45;;;;;;;9.45;5.60;;;17.00;99.90;;;;;;4970631;28;20062;-68
2022/06/12 02:18:36;;;;;;;13.82;6.28;;;16.90;99.90;;;;;;4969647;28;20027;-72
2022/06/12 02:21:08;;;;;;;8.00;5.57;;;16.90;99.90;;;;;;4968425;28;20109;-63
2022/06/12 02:24:01;;;;;;;12.50;6.07;;;16.90;99.90;;;;;;4970431;28;20038;-68
2022/06/12 02:26:34;;;;;;;10.38;6.18;;;16.80;99.90;;;;;;4968931;28;20046;-67
2022/06/12 02:29:04;;;;;;;;;;;16.80;99.90;;;;;;4971373;28;20026;-73
2022/06/12 02:31:37;;;;;;;10.38;5.93;;;16.80;99.90;;;;;;4971456;28;19910;-71
2022/06/12 02:34:12;;;;;;;12.25;6.68;;;16.90;99.90;;;;;;4971199;28;20053;-71
2022/06/12 02:36:49;;;;;;;14.75;6.15;;;16.90;99.90;;;;;;4973791;28;20149;-72
2022/06/12 02:39:23;;;;;;;8.35;5.32;;;16.90;99.90;;;;;;4975985;28;20667;-74
2022/06/12 02:41:57;;;;;;;11.60;5.63;;;16.90;99.90;;;;;;4976415;28;20039;-73
2022/06/12 02:44:38;;;;;;;14.60;5.93;;;16.90;99.90;;;;;;4976455;28;20046;-74
2022/06/12 02:47:11;;;;;;;13.30;6.90;;;16.80;99.90;;;;;;4976567;28;20046;-72
2022/06/12 02:49:39;;;;;;;11.32;5.88;;;16.80;99.90;;;;;;4976598;28;20034;-72
2022/06/12 02:52:20;;;;;;;9.95;5.75;;;16.80;99.90;;;;;;4976623;28;20073;-72
2022/06/12 02:55:04;;;;;;;9.05;5.60;;;16.80;99.90;;;;;;4964188;28;20476;-69
2022/06/12 02:58:06;;;;;;;11.45;5.97;;;16.70;99.90;;;;;;4976272;28;20110;-70
2022/06/12 03:00:41;;;;;;;15.57;6.03;;;16.80;99.90;;;;;;4939579;29;20122;-74
2022/06/12 03:03:16;;;;;;;11.13;5.78;;;16.90;99.90;;;;;;4928144;29;20122;-74
2022/06/12 03:05:46;;;;;;;12.18;5.82;;;16.90;99.90;;;;;;4943302;29;20192;-73
2022/06/12 03:08:18;;;;;;;10.77;6.35;;;16.90;99.90;;;;;;4927898;29;20142;-73
2022/06/12 03:10:49;;;;;;;15.45;6.60;;;16.90;99.90;;;;;;4954081;29;20047;-71
2022/06/12 03:13:17;;;;;;;10.60;5.32;;;16.90;99.90;;;;;;4935107;29;20062;-71
2022/06/12 03:15:50;;;;;;;9.50;5.07;;;16.90;99.90;;;;;;4948461;29;20071;-73
2022/06/12 03:18:21;;;;;;;9.75;5.18;;;17.00;99.90;;;;;;4954797;29;20047;-72
2022/06/12 03:21:00;;;;;;;11.40;6.18;;;16.90;99.90;;;;;;4954747;29;20461;-73
2022/06/12 03:23:45;;;;;;;13.98;5.97;;;17.00;99.90;;;;;;4933630;29;20044;-73
2022/06/12 03:26:17;;;;;;;8.82;5.32;;;17.10;99.90;;;;;;4939151;29;20386;-73
2022/06/12 03:29:11;;;;;;;11.05;4.80;;;17.10;99.90;;;;;;4954455;29;20082;-73
2022/06/12 03:31:42;;;;;;;8.13;4.95;;;17.20;99.90;;;;;;4860122;29;20492;-73
2022/06/12 03:34:27;;;;;;;11.13;5.53;;;17.20;99.90;;;;;;4848880;29;20045;-73
2022/06/12 03:37:03;;;;;;;9.57;5.22;;;17.20;99.90;;;;;;4859938;29;20367;-72
2022/06/12 03:39:39;;;;;;;8.18;5.18;;;17.20;99.90;;;;;;4878437;29;20089;-72
2022/06/12 03:42:20;;;;;;;9.00;5.50;;;17.60;99.90;;;;;;4877965;29;20064;-73
2022/06/12 03:45:07;;;;;;;8.40;5.35;;;18.10;99.90;;;;;;4874572;29;20053;-73
2022/06/12 03:48:06;;;;;;;12.20;4.72;;;18.70;99.90;;;;;;4865222;29;20072;-73
2022/06/12 03:50:53;;;;;;;7.82;5.25;;;19.10;99.90;;;;;;4878234;29;20029;-72
2022/06/12 03:53:25;;;;;;;8.85;4.57;;;19.70;99.90;;;;;;4878330;29;20555;-74
2022/06/12 03:59:30;;;;;;;7.78;4.82;;;20.30;99.90;;;;;;4878245;29;20464;-69
2022/06/12 04:01:58;;;;;;;10.00;4.40;;;20.70;99.90;;;;;;4859125;29;20094;-74
2022/06/12 04:04:27;;;;;;;10.43;4.65;;;21.20;99.90;;;;;;4859474;29;20116;-74
2022/06/12 04:06:55;;;;;;;10.05;4.55;;;21.30;99.90;;;;;;4859871;29;20091;-73
2022/06/12 04:09:25;;;;;;;7.22;3.60;;;21.70;99.90;;;;;;4873371;29;20037;-72
2022/06/12 04:11:57;;;;;;;8.85;4.00;;;21.60;99.90;;;;;;4877566;29;20056;-74
2022/06/12 04:14:29;;;;;;;6.75;4.03;;;21.80;99.90;;;;;;4877913;29;20056;-73
2022/06/12 04:16:59;;;;;;;5.75;3.88;;;22.20;99.90;;;;;;4877086;29;20051;-74
2022/06/12 04:19:27;;;;;;;7.07;4.03;;;22.70;99.90;;;;;;4874668;29;20580;-75
2022/06/12 04:22:11;;;;;;;7.82;4.22;;;22.30;99.90;;;;;;4880946;29;20044;-73
2022/06/12 04:24:48;;;;;;;7.25;4.40;;;22.70;99.90;;;;;;4878683;29;20037;-72
2022/06/12 04:27:28;;;;;;;7.40;4.05;;;22.30;99.90;;;;;;4876711;29;20029;-75
2022/06/12 04:29:55;;;;;;;7.00;3.83;;;23.00;99.90;;;;;;4877968;29;20488;-73
2022/06/12 04:32:22;;;;;;;5.57;3.88;;;23.30;99.90;;;;;;4877664;29;20144;-74
2022/06/12 04:34:49;;;;;;;7.82;4.40;;;23.30;99.90;;;;;;4877770;29;20028;-70
2022/06/12 04:37:16;;;;;;;5.18;3.70;;;23.10;99.90;;;;;;4882398;28;20029;-74
2022/06/12 04:39:44;;;;;;;7.50;3.90;;;24.00;99.90;;;;;;4974973;28;20041;-73
2022/06/12 04:42:12;;;;;;;5.35;3.88;;;23.90;99.90;;;;;;4975648;28;20073;-74
2022/06/12 04:44:38;;;;;;;5.78;3.88;;;23.50;99.90;;;;;;4975774;28;20459;-76
2022/06/12 04:47:05;;;;;;;5.30;3.58;;;23.50;99.90;;;;;;4970519;28;20054;-76
2022/06/12 04:49:34;;;;;;;6.40;3.28;;;23.40;99.90;;;;;;4975841;28;20034;-71
2022/06/12 04:52:03;;;;;;;9.27;3.90;;;23.50;99.90;;;;;;4974888;28;20027;-73
2022/06/12 04:54:30;;;;;;;4.90;3.35;;;23.30;99.90;;;;;;4967798;28;20062;-75
2022/06/12 04:56:57;;;;;;;5.22;3.63;;;23.20;99.90;;;;;;4973536;28;20058;-75
2022/06/12 04:59:22;;;;;;;7.63;4.45;;;22.20;99.90;;;;;;4973940;28;20035;-69
2022/06/12 05:01:49;;;;;;;8.13;3.75;;;21.90;99.90;;;;;;4974621;28;20035;-72
2022/06/12 05:04:19;;;;;;;6.43;4.25;;;21.50;99.90;;;;;;4972876;28;20031;-75
2022/06/12 05:06:46;;;;;;;7.13;3.97;;;21.30;99.90;;;;;;4974185;28;20045;-74
2022/06/12 05:09:14;;;;;;;8.18;4.88;;;20.90;99.90;;;;;;4973573;28;20059;-74
2022/06/12 05:11:41;;;;;;;7.00;4.63;;;20.60;99.90;;;;;;4969567;28;20086;-71
2022/06/12 05:14:07;;;;;;;10.60;4.75;;;20.70;99.90;;;;;;4970711;28;20059;-74
2022/06/12 05:16:43;;;;;;;8.40;4.25;;;20.80;99.90;;;;;;4973796;28;20061;-72
2022/06/12 05:19:12;;;;;;;7.88;4.93;;;20.90;99.90;;;;;;4967620;28;20425;-73
2022/06/12 05:21:39;;;;;;;7.43;4.32;;;20.90;99.90;;;;;;4971364;28;20054;-68
2022/06/12 05:24:05;;;;;;;6.05;4.55;;;21.10;99.90;;;;;;4970864;28;20030;-69
2022/06/12 05:26:33;;;;;;;6.60;4.40;;;21.20;99.90;;;;;;4973344;28;20035;-65
2022/06/12 05:29:03;;;;;;;6.95;4.22;;;21.40;99.90;;;;;;4972661;28;20023;-76
2022/06/12 05:31:29;;;;;;;7.07;4.35;;;21.20;99.90;;;;;;4973329;28;20393;-73
2022/06/12 05:33:55;;;;;;;8.93;4.72;;;21.50;99.90;;;;;;4973108;28;20400;-76
2022/06/12 05:36:23;;;;;;;7.10;4.35;;;21.70;99.90;;;;;;4971878;28;20018;-71
2022/06/12 05:38:50;;;;;;;6.15;4.18;;;21.70;99.90;;;;;;4971215;28;20022;-72
2022/06/12 05:41:16;;;;;;;6.95;4.07;;;21.90;99.90;;;;;;4968717;28;20020;-73
2022/06/12 05:43:42;;;;;;;8.35;4.45;;;21.90;99.90;;;;;;4959522;28;20055;-72
2022/06/12 05:46:10;;;;;;;5.78;4.05;;;21.90;99.90;;;;;;4948534;29;20053;-70
2022/06/12 05:48:37;;;;;;;7.60;4.78;;;21.90;99.90;;;;;;4953025;28;20034;-71
2022/06/12 05:51:04;;;;;;;7.47;4.00;;;22.10;99.90;;;;;;4953109;29;20036;-71
2022/06/12 05:53:33;;;;;;;7.68;4.28;;;21.80;99.90;;;;;;4967824;28;20105;-70
2022/06/12 05:56:00;;;;;;;7.70;4.05;;;22.00;99.90;;;;;;4968189;28;20030;-64
2022/06/12 05:58:28;;;;;;;5.40;3.63;;;22.00;99.90;;;;;;4968407;28;20059;-73
2022/06/12 06:00:54;;;;;;;8.35;4.57;;;22.00;99.90;;;;;;4966203;28;20030;-70
2022/06/12 06:03:21;;;;;;;9.43;4.25;;;22.00;99.90;;;;;;4967234;28;20032;-73
2022/06/12 06:05:48;;;;;;;7.30;4.70;;;22.30;99.90;;;;;;4965647;28;20081;-70
2022/06/12 06:08:16;;;;;;;9.48;4.95;;;22.40;99.90;;;;;;4963429;28;20019;-66
2022/06/12 06:10:43;;;;;;;7.22;4.35;;;22.50;99.90;;;;;;4962999;28;20023;-66
2022/06/12 06:13:11;;;;;;;7.97;4.50;;;22.30;99.90;;;;;;4962610;28;20469;-64
2022/06/12 06:15:37;;;;;;;10.13;4.70;;;22.20;99.90;;;;;;4963053;28;20085;-72
2022/06/12 06:18:04;;;;;;;6.18;4.38;;;22.30;99.90;;;;;;4963387;28;20466;-69
2022/06/12 06:20:34;;;;;;;7.13;4.45;;;22.30;99.90;;;;;;4968209;28;20031;-70
2022/06/12 06:23:01;;;;;;;8.27;4.35;;;22.30;99.90;;;;;;4965488;28;20035;-76
2022/06/12 06:25:29;;;;;;;7.07;4.22;;;22.40;99.90;;;;;;4970997;28;20125;-65
2022/06/12 06:27:56;;;;;;;6.10;4.40;;;22.20;99.90;;;;;;4966740;28;20417;-72
2022/06/12 06:30:23;;;;;;;8.40;4.93;;;22.50;99.90;;;;;;4968692;28;20027;-71
2022/06/12 06:32:49;;;;;;;8.13;4.32;;;22.70;99.90;;;;;;4962731;28;20020;-76
2022/06/12 06:35:16;;;;;;;7.60;4.90;;;22.70;99.90;;;;;;4948574;29;20494;-74
2022/06/12 06:37:43;;;;;;;6.32;4.25;;;22.70;99.90;;;;;;4950985;28;20484;-71
2022/06/12 06:40:12;;;;;;;7.78;4.95;;;23.00;99.90;;;;;;4962284;28;20038;-64
2022/06/12 06:42:37;;;;;;;6.60;4.60;;;23.10;99.90;;;;;;4955336;28;20036;-72
2022/06/12 06:47:49;;;;;;;8.95;4.95;;;23.00;99.90;;;;;;4947963;28;20035;-74
2022/06/12 06:50:18;;;;;;;6.68;4.72;;;22.80;99.90;;;;;;4953878;28;20023;-76
2022/06/12 06:52:44;;;;;;;7.97;4.63;;;22.70;99.90;;;;;;4953916;29;20598;-76
2022/06/12 06:55:10;;;;;;;5.78;3.65;;;22.80;99.90;;;;;;4953750;29;20023;-70
2022/06/12 06:57:39;;;;;;;4.72;3.92;;;22.90;99.90;;;;;;4953232;28;20028;-75
2022/06/12 07:00:06;;;;;;;7.65;4.90;;;23.00;99.90;;;;;;4958299;28;20046;-75
2022/06/12 07:02:33;;;;;;;7.47;4.80;;;23.10;99.90;;;;;;4953303;29;20137;-74
2022/06/12 07:04:58;;;;;;;8.07;4.65;;;23.20;99.90;;;;;;4964848;28;20027;-73
2022/06/12 07:07:24;;;;;;;11.25;4.60;;;23.40;99.90;;;;;;4954578;28;20043;-73
2022/06/12 07:09:50;;;;;;;6.80;4.35;;;23.60;99.90;;;;;;4953025;28;20036;-73
2022/06/12 07:12:17;;;;;;;6.32;4.45;;;23.30;99.90;;;;;;4955504;28;20408;-74
2022/06/12 07:14:43;;;;;;;6.45;4.35;;;23.40;99.90;;;;;;4953062;29;20039;-68
2022/06/12 07:17:08;;;;;;;10.48;4.40;;;23.50;99.90;;;;;;4952605;29;20051;-74
2022/06/12 07:19:34;;;;;;;8.95;3.97;;;23.40;99.90;;;;;;4952815;29;20027;-70
2022/06/12 07:22:00;;;;;;;7.20;4.82;;;23.60;99.90;;;;;;4954083;28;20039;-73
2022/06/12 07:24:27;;;;;;;8.82;4.53;;;23.10;99.90;;;;;;4956413;28;20110;-73
2022/06/12 07:26:53;;;;;;;8.00;4.25;;;23.60;99.90;;;;;;4955923;29;20035;-74
2022/06/12 07:29:21;;;;;;;7.75;4.40;;;23.90;99.90;;;;;;4955253;29;20114;-76
2022/06/12 07:31:48;;;;;;;9.85;4.80;;;23.70;99.90;;;;;;4956757;29;20086;-75
2022/06/12 07:34:14;;;;;;;7.22;4.20;;;23.80;99.90;;;;;;4956517;29;20019;-75
2022/06/12 07:36:43;;;;;;;5.88;4.55;;;24.10;99.90;;;;;;4969901;28;20035;-76
2022/06/12 07:39:14;;;;;;;6.25;4.13;;;24.00;99.90;;;;;;4956406;28;20058;-69
2022/06/12 07:41:40;;;;;;;8.10;5.20;;;23.80;99.90;;;;;;4956385;29;20070;-75
2022/06/12 07:44:07;;;;;;;6.68;4.28;;;23.90;99.90;;;;;;4968652;28;20049;-75
2022/06/12 07:46:34;;;;;;;8.88;4.07;;;23.90;99.90;;;;;;4976099;28;20039;-75
2022/06/12 07:48:59;;;;;;;10.02;4.43;;;24.10;99.90;;;;;;4975370;28;20094;-73
2022/06/12 07:51:26;;;;;;;10.57;4.63;;;24.10;99.90;;;;;;4975749;28;20473;-75
2022/06/12 07:53:53;;;;;;;5.95;4.68;;;24.20;99.90;;;;;;4975605;28;20503;-75
2022/06/12 07:56:21;;;;;;;5.95;4.00;;;24.40;99.90;;;;;;4975396;28;20086;-74
2022/06/12 07:58:47;;;;;;;8.70;4.85;;;24.50;99.90;;;;;;4975052;28;20480;-75
2022/06/12 08:01:17;;;;;;;8.90;4.75;;;24.60;99.90;;;;;;4975094;28;20031;-75
2022/06/12 08:03:43;;;;;;;4.28;3.88;;;24.50;99.90;;;;;;4975196;28;20026;-74
2022/06/12 08:06:09;;;;;;;6.68;3.88;;;24.40;99.90;;;;;;4974981;28;20030;-75
2022/06/12 08:08:36;;;;;;;6.43;4.82;;;24.50;99.90;;;;;;4975288;28;20377;-76
2022/06/12 08:11:03;;;;;;;8.57;4.50;;;24.40;99.90;;;;;;4975505;28;20029;-76
2022/06/12 08:13:30;;;;;;;6.10;3.75;;;24.60;99.90;;;;;;4975288;28;20346;-75
2022/06/12 08:15:57;;;;;;;7.70;4.07;;;24.70;99.50;;;;;;4974908;28;20125;-74
2022/06/12 08:18:24;;;;;;;6.45;4.18;;;24.70;99.90;;;;;;4974869;28;20035;-75
2022/06/12 08:21:01;;;;;;;6.53;4.15;;;25.00;99.90;;;;;;4974944;28;20508;-76
2022/06/12 08:23:48;;;;;;;7.18;3.72;;;25.10;99.30;;;;;;4972659;28;20070;-75
2022/06/12 08:26:24;;;;;;;5.63;3.92;;;25.00;99.90;;;;;;4975048;28;20101;-75
2022/06/12 08:29:06;;;;;;;11.88;4.30;;;24.70;99.50;;;;;;4974891;28;20053;-75
2022/06/12 08:31:35;;;;;;;;;;;24.80;99.90;;;;;;4975142;28;20077;-72
2022/06/12 08:34:06;;;;;;;5.40;4.28;;;25.30;99.90;;;;;;4973959;28;19906;-76
2022/06/12 08:36:32;;;;;;;7.13;4.43;;;25.00;99.90;;;;;;4974632;28;20081;-74
2022/06/12 08:38:59;;;;;;;7.07;3.92;;;25.10;99.90;;;;;;4974639;28;20019;-75
2022/06/12 08:41:47;;;;;;;6.28;3.90;;;25.00;96.70;;;;;;4974704;28;20036;-75
2022/06/12 08:44:26;;;;;;;6.00;4.00;;;25.30;98.80;;;;;;4974029;28;20042;-74
2022/06/12 08:46:58;;;;;;;5.50;3.75;;;25.50;98.70;;;;;;4974277;28;20483;-75
2022/06/12 08:49:28;;;;;;;6.60;4.18;;;25.30;97.40;;;;;;4974688;28;20037;-75
2022/06/12 08:52:04;;;;;;;5.60;4.18;;;25.30;97.90;;;;;;4974661;28;20394;-75
2022/06/12 08:54:43;;;;;;;6.32;4.15;;;25.40;98.80;;;;;;4962070;28;20030;-75
2022/06/12 08:57:15;;;;;;;8.10;4.40;;;25.30;97.60;;;;;;4974074;28;20129;-74
2022/06/12 08:59:59;;;;;;;3.78;3.40;;;25.40;99.70;;;;;;4974354;28;20037;-76
2022/06/12 09:02:29;;;;;;;4.85;3.53;;;25.40;98.50;;;;;;4973955;28;20042;-74
2022/06/12 09:05:00;;;;;;;6.13;3.72;;;25.20;96.90;;;;;;4973662;28;20121;-75
2022/06/12 09:07:38;;;;;;;5.55;3.35;;;25.20;99.90;;;;;;4973083;28;20037;-74
2022/06/12 09:10:42;;;;;;;5.30;3.83;;;25.00;99.60;;;;;;4973776;28;20097;-76
2022/06/12 09:13:38;;;;;;;5.70;3.78;;;25.00;99.20;;;;;;4973539;28;20505;-76
2022/06/12 09:16:20;;;;;;;4.68;3.35;;;25.10;99.90;;;;;;4973292;28;20536;-76
2022/06/12 09:19:09;;;;;;;4.75;3.70;;;25.40;99.10;;;;;;4973435;28;20027;-76
2022/06/12 09:21:47;;;;;;;4.95;3.33;;;25.50;97.20;;;;;;4978099;28;20048;-76
2022/06/12 09:24:30;;;;;;;6.47;4.22;;;25.40;96.40;;;;;;4982966;28;20069;-71
2022/06/12 09:26:56;;;;;;;9.50;4.15;;;;;;;;;;4974126;28;20027;-73
2022/06/12 09:29:58;;;;;;;9.85;4.35;;;25.80;99.20;;;;;;4972347;28;20018;-74
2022/06/12 09:32:29;;;;;;;6.45;3.97;;;25.60;96.60;;;;;;4972821;28;20038;-75
2022/06/12 09:35:14;;;;;;;9.45;5.13;;;25.60;97.00;;;;;;4972631;28;20376;-75
2022/06/12 09:40:50;;;;;;;6.28;5.13;;;25.40;99.00;;;;;;4972876;28;20110;-75
2022/06/12 09:43:38;;;;;;;13.52;8.60;;;25.80;97.50;;;;;;4972600;28;20049;-75
2022/06/12 09:46:12;;;;;;;6.15;3.75;;;25.60;95.60;;;;;;4972851;28;20038;-75
2022/06/12 09:48:58;;;;;;;7.13;4.75;;;25.70;97.60;;;;;;4972569;28;20042;-74
2022/06/12 09:51:36;;;;;;;5.03;4.25;;;25.70;97.10;;;;;;4972822;28;20544;-75
2022/06/12 09:54:28;;;;;;;5.07;3.72;;;25.50;96.90;;;;;;4965568;28;20488;-76
2022/06/12 09:56:58;;;;;;;;;;;25.60;97.60;;;;;;4972688;28;20038;-77
2022/06/12 09:59:27;;;;;;;5.90;3.70;;;25.90;96.20;;;;;;4972601;28;19933;-77
2022/06/12 10:01:57;;;;;;;4.68;3.13;;;26.00;98.00;;;;;;4972461;28;20034;-75
2022/06/12 10:04:30;;;;;;;4.85;3.45;;;26.00;96.10;;;;;;4972907;28;20085;-76
2022/06/12 10:07:09;;;;;;;6.57;4.10;;;26.30;97.00;;;;;;4972813;28;20031;-72
2022/06/12 10:09:35;;;;;;;6.20;3.80;;;26.20;95.20;;;;;;4972623;28;20089;-75
2022/06/12 10:12:14;;;;;;;6.43;3.88;;;26.20;94.10;;;;;;4972523;28;20037;-76
2022/06/12 10:14:56;;;;;;;6.85;4.18;;;26.20;94.40;;;;;;4972620;28;20042;-73
2022/06/12 10:17:41;;;;;;;5.53;3.70;;;26.10;95.30;;;;;;4972595;28;20109;-75
2022/06/12 10:20:09;;;;;;;5.88;3.70;;;26.20;98.10;;;;;;4972198;28;20102;-75
2022/06/12 10:22:40;;;;;;;8.68;3.95;;;26.30;94.80;;;;;;4972980;28;20035;-77
2022/06/12 10:25:08;;;;;;;4.25;3.28;;;;;;;;;;4972523;28;20074;-75
2022/06/12 10:27:48;;;;;;;8.63;3.92;;;26.40;96.20;;;;;;4972328;28;20097;-74
2022/06/12 10:30:42;;;;;;;8.48;4.03;;;26.40;93.60;;;;;;4972352;28;20469;-76
2022/06/12 10:33:16;;;;;;;8.18;4.07;;;26.70;96.30;;;;;;4912550;29;20045;-74
2022/06/12 10:36:01;;;;;;;6.07;4.20;;;26.60;93.50;;;;;;4913033;29;20051;-75
2022/06/12 10:38:33;;;;;;;6.85;3.63;;;26.60;93.70;;;;;;4912395;29;20043;-76
2022/06/12 10:41:05;;;;;;;5.30;3.78;;;26.70;94.30;;;;;;4912775;29;20035;-76
2022/06/12 10:43:36;;;;;;;8.48;4.15;;;26.80;93.90;;;;;;4904566;29;20062;-77
2022/06/12 10:46:14;;;;;;;7.50;3.83;;;26.90;94.40;;;;;;4912913;29;20060;-72
2022/06/12 10:48:40;;;;;;;5.53;3.42;;;26.90;93.30;;;;;;4912207;29;20067;-72
2022/06/12 10:51:38;;;;;;;4.72;3.42;;;27.00;93.30;;;;;;4912222;29;20069;-76
2022/06/12 10:54:27;;;;;;;6.35;3.85;;;27.10;95.40;;;;;;4893369;29;20079;-72
2022/06/12 10:57:04;;;;;;;5.20;3.47;;;26.70;91.60;;;;;;4894710;29;20041;-70
2022/06/12 10:59:30;;;;;;;4.53;3.17;;;26.40;93.20;;;;;;4897241;29;20056;-74
2022/06/12 11:02:17;;;;;;;11.18;4.20;;;26.30;94.10;;;;;;4897922;29;20033;-76
2022/06/12 11:05:30;;;;;;;7.07;3.85;;;26.50;92.40;;;;;;4896908;29;20506;-74
2022/06/12 11:08:14;;;;;;;4.18;3.28;;;26.70;91.20;;;;;;4841647;29;20086;-74
2022/06/12 11:10:54;;;;;;;7.28;4.00;;;26.60;92.30;;;;;;4868631;29;20048;-74
2022/06/12 11:13:46;;;;;;;7.45;3.53;;;26.70;92.70;;;;;;4878506;29;20045;-75
2022/06/12 11:16:15;;;;;;;;;;;26.60;93.70;;;;;;4876140;29;20396;-74
2022/06/12 11:19:00;;;;;;;4.85;3.88;;;26.40;91.40;;;;;;4869111;29;19911;-75
2022/06/12 11:21:38;;;;;;;5.70;3.97;;;26.60;94.00;;;;;;4878613;29;20041;-75
2022/06/12 11:24:27;;;;;;;8.50;3.78;;;26.80;94.60;;;;;;4877967;29;20067;-75
2022/06/12 11:26:56;;;;;;;5.07;3.75;;;26.80;92.00;;;;;;4877622;29;20127;-72
2022/06/12 11:29:45;;;;;;;10.50;4.15;;;27.00;93.80;;;;;;4878606;29;20496;-75
2022/06/12 11:32:38;;;;;;;7.82;3.25;;;27.00;96.50;;;;;;4896631;29;20092;-75
2022/06/12 11:35:38;;;;;;;5.35;3.72;;;26.60;91.80;;;;;;4897506;29;20040;-75
2022/06/12 11:38:22;;;;;;;5.22;3.63;;;26.90;92.40;;;;;;4920709;28;20043;-74
2022/06/12 11:41:10;;;;;;;6.20;4.28;;;26.80;91.40;;;;;;4962527;28;20512;-75
2022/06/12 11:43:44;;;;;;;13.40;8.38;;;27.30;93.70;;;;;;4974889;28;20049;-76
2022/06/12 11:46:32;;;;;;;7.30;3.53;;;27.10;90.90;;;;;;4975531;28;20031;-73
2022/06/12 11:49:21;;;;;;;5.05;3.78;;;27.00;91.20;;;;;;4975467;28;20499;-75
2022/06/12 11:52:06;;;;;;;5.85;3.80;;;27.00;91.60;;;;;;4975708;28;20416;-76
2022/06/12 11:55:06;;;;;;;3.67;3.10;;;26.90;91.20;;;;;;4963444;28;20026;-75
2022/06/12 11:57:37;;;;;;;4.43;3.58;;;27.10;89.80;;;;;;4975092;28;20059;-75
2022/06/12 12:00:16;;;;;;;5.57;3.90;;;27.50;90.70;;;;;;4974967;28;20023;-68
2022/06/12 12:02:47;;;;;;;4.60;3.42;;;27.50;88.90;;;;;;4973285;28;20042;-69
2022/06/12 12:05:31;;;;;;;;;;;27.50;88.30;;;;;;4974035;28;20038;-73
2022/06/12 12:08:14;;;;;;;4.47;3.15;;;27.60;90.60;;;;;;4972593;28;19910;-74
2022/06/12 12:11:05;;;;;;;4.10;3.53;;;27.80;90.80;;;;;;4975242;28;20516;-74
2022/06/12 12:13:42;;;;;;;5.13;3.55;;;27.70;86.70;;;;;;4974613;28;20485;-73
2022/06/12 12:16:20;;;;;;;5.47;3.92;;;27.50;85.90;;;;;;4974347;28;20062;-75
2022/06/12 12:19:11;;;;;;;6.32;3.88;;;27.60;85.30;;;;;;4974659;28;20026;-75
2022/06/12 12:22:01;;;;;;;4.00;3.00;;;27.70;86.40;;;;;;4974892;28;20038;-75
2022/06/12 12:24:33;;;;;;;5.13;3.25;;;27.90;90.40;;;;;;4975337;28;20078;-75
2022/06/12 12:27:05;;;;;;;4.35;3.33;;;27.90;86.40;;;;;;4975072;28;20030;-75
2022/06/12 12:29:34;;;;;;;4.03;3.35;;;27.80;82.60;;;;;;4975013;28;20070;-75
2022/06/12 12:32:04;;;;;;;6.22;3.50;;;28.00;85.40;;;;;;4974833;28;20041;-74
2022/06/12 12:34:31;;;;;;;5.40;3.20;;;27.90;86.40;;;;;;4975036;28;20070;-75
2022/06/12 12:42:34;;;;;;;3.72;3.10;;;27.70;87.20;;;;;;4974802;28;20109;-75
2022/06/12 12:45:11;;;;;;;3.90;2.95;;;27.60;86.70;;;;;;4974686;28;20446;-75
2022/06/12 12:47:39;;;;;;;6.00;3.30;;;27.60;84.70;;;;;;4961609;28;20039;-75
2022/06/12 12:50:14;;;;;;;7.35;3.53;;;27.80;86.90;;;;;;4974581;28;20041;-74
2022/06/12 12:52:43;;;;;;;6.15;4.03;;;27.80;82.90;;;;;;4974722;28;20038;-75
2022/06/12 12:55:39;;;;;;;5.70;3.53;;;28.00;87.40;;;;;;4974513;28;20030;-73
2022/06/12 12:58:20;;;;;;;5.80;3.25;;;28.30;84.30;;;;;;4952660;29;20055;-75
2022/06/12 13:00:46;;;;;;;5.40;3.38;;;28.20;83.80;;;;;;4952699;29;20023;-75
2022/06/12 13:03:13;;;;;;;5.53;3.22;;;;;;;;;;4952627;28;20129;-76
2022/06/12 13:05:47;;;;;;;8.05;4.25;;;28.20;82.30;;;;;;4951997;29;20063;-75
2022/06/12 13:08:39;;;;;;;4.35;3.15;;;27.90;82.50;;;;;;4951918;29;20035;-75
2022/06/12 13:11:47;;;;;;;6.78;4.05;;;27.80;81.00;;;;;;4951980;29;20548;-75
2022/06/12 13:14:34;;;;;;;6.75;3.00;;;27.90;81.20;;;;;;4959806;28;20081;-74
2022/06/12 13:17:34;;;;;;;5.78;3.25;;;27.90;80.50;;;;;;4971513;28;20506;-75
2022/06/12 13:20:06;;;;;;;4.43;3.58;;;28.00;81.30;;;;;;4969840;28;20469;-75
2022/06/12 13:22:49;;;;;;;5.60;3.25;;;28.00;79.60;;;;;;4951660;28;20191;-73
2022/06/12 13:25:25;;;;;;;8.25;3.78;;;28.00;80.70;;;;;;4969445;28;20035;-74
2022/06/12 13:27:51;;;;;;;5.30;3.58;;;28.10;80.30;;;;;;4971033;28;20051;-75
2022/06/12 13:30:20;;;;;;;5.82;3.55;;;28.00;78.90;;;;;;4971916;28;20027;-76
2022/06/12 13:32:46;;;;;;;5.43;3.30;;;28.00;78.50;;;;;;4971804;28;20033;-75
2022/06/12 13:35:31;;;;;;;4.70;3.33;;;28.00;81.90;;;;;;4973222;28;20436;-75
2022/06/12 13:38:07;;;;;;;8.27;3.83;;;28.10;83.40;;;;;;4973952;28;20031;-75